sensor_id;sensor_type;location;lat;lon;timestamp;pressure;altitude;pressure_sealevel;temperature;humidity
59531;BME280;45349;48.692;8.186;2023-04-01T00:01:46;97412.91;;;9.10;89.70
59531;BME280;45349;48.692;8.186;2023-04-01T00:04:13;97431.00;;;9.03;89.28
59531;BME280;45349;48.692;8.186;2023-04-01T00:06:40;97427.94;;;8.99;90.28
59531;BME280;45349;48.692;8.186;2023-04-01T00:09:07;97423.06;;;8.96;90.29
59531;BME280;45349;48.692;8.186;2023-04-01T00:11:34;97430.09;;;8.96;91.53
59531;BME280;45349;48.692;8.186;2023-04-01T00:14:00;97418.69;;;8.97;89.33
59531;BME280;45349;48.692;8.186;2023-04-01T00:16:27;97421.56;;;9.02;89.65
59531;BME280;45349;48.692;8.186;2023-04-01T00:18:55;97434.16;;;8.90;91.60
59531;BME280;45349;48.692;8.186;2023-04-01T00:21:21;97413.03;;;8.85;92.24
59531;BME280;45349;48.692;8.186;2023-04-01T00:23:48;97418.91;;;8.79;92.01
59531;BME280;45349;48.692;8.186;2023-04-01T00:26:15;97419.09;;;8.77;91.15
59531;BME280;45349;48.692;8.186;2023-04-01T00:28:46;97402.31;;;8.80;91.28
59531;BME280;45349;48.692;8.186;2023-04-01T00:31:13;97420.19;;;8.83;90.71
59531;BME280;45349;48.692;8.186;2023-04-01T00:33:41;97408.81;;;8.84;89.73
59531;BME280;45349;48.692;8.186;2023-04-01T00:36:11;97408.03;;;8.83;90.38
59531;BME280;45349;48.692;8.186;2023-04-01T00:38:38;97400.22;;;8.83;90.04
59531;BME280;45349;48.692;8.186;2023-04-01T00:41:05;97408.81;;;8.84;89.86
59531;BME280;45349;48.692;8.186;2023-04-01T00:43:32;97398.59;;;8.82;90.30
59531;BME280;45349;48.692;8.186;2023-04-01T00:46:00;97385.41;;;8.84;89.10
59531;BME280;45349;48.692;8.186;2023-04-01T00:48:28;97397.09;;;8.88;89.31
59531;BME280;45349;48.692;8.186;2023-04-01T00:51:00;97403.63;;;8.84;89.04
59531;BME280;45349;48.692;8.186;2023-04-01T00:53:31;97406.41;;;8.82;88.45
59531;BME280;45349;48.692;8.186;2023-04-01T00:56:01;97402.97;;;8.82;88.61
59531;BME280;45349;48.692;8.186;2023-04-01T00:58:31;97400.84;;;8.85;87.07
59531;BME280;45349;48.692;8.186;2023-04-01T01:00:59;97404.59;;;8.83;87.90
59531;BME280;45349;48.692;8.186;2023-04-01T01:03:27;97413.41;;;8.74;88.99
59531;BME280;45349;48.692;8.186;2023-04-01T01:06:14;97415.03;;;8.75;87.08
59531;BME280;45349;48.692;8.186;2023-04-01T01:09:20;97411.78;;;8.73;87.41
59531;BME280;45349;48.692;8.186;2023-04-01T01:11:57;97415.22;;;8.73;87.06
59531;BME280;45349;48.692;8.186;2023-04-01T01:14:36;97414.38;;;8.73;86.17
59531;BME280;45349;48.692;8.186;2023-04-01T01:17:13;97410.00;;;8.73;86.55
59531;BME280;45349;48.692;8.186;2023-04-01T01:20:14;97400.06;;;8.77;85.40
59531;BME280;45349;48.692;8.186;2023-04-01T01:22:55;97399.41;;;8.75;84.81
59531;BME280;45349;48.692;8.186;2023-04-01T01:25:34;97401.03;;;8.76;85.93
59531;BME280;45349;48.692;8.186;2023-04-01T01:28:21;97417.00;;;8.73;85.66
59531;BME280;45349;48.692;8.186;2023-04-01T01:30:57;97408.69;;;8.77;84.72
59531;BME280;45349;48.692;8.186;2023-04-01T01:33:39;97409.38;;;8.71;86.10
59531;BME280;45349;48.692;8.186;2023-04-01T01:36:13;97403.00;;;8.74;85.66
59531;BME280;45349;48.692;8.186;2023-04-01T01:38:40;97399.28;;;8.76;84.38
59531;BME280;45349;48.692;8.186;2023-04-01T01:41:08;97380.88;;;8.78;84.56
59531;BME280;45349;48.692;8.186;2023-04-01T01:43:39;97387.06;;;8.77;83.07
59531;BME280;45349;48.692;8.186;2023-04-01T01:46:09;97390.19;;;8.72;84.87
59531;BME280;45349;48.692;8.186;2023-04-01T01:48:38;97394.41;;;8.73;82.54
59531;BME280;45349;48.692;8.186;2023-04-01T01:51:08;97367.41;;;8.74;83.89
59531;BME280;45349;48.692;8.186;2023-04-01T01:53:36;97368.16;;;8.83;82.28
59531;BME280;45349;48.692;8.186;2023-04-01T01:56:04;97377.47;;;8.77;83.99
59531;BME280;45349;48.692;8.186;2023-04-01T01:58:39;97395.69;;;8.77;83.32
59531;BME280;45349;48.692;8.186;2023-04-01T02:01:13;97379.44;;;8.75;83.11
59531;BME280;45349;48.692;8.186;2023-04-01T02:03:42;97384.78;;;8.74;84.03
59531;BME280;45349;48.692;8.186;2023-04-01T02:06:13;97382.38;;;8.72;84.54
59531;BME280;45349;48.692;8.186;2023-04-01T02:08:45;97380.56;;;8.73;83.65
59531;BME280;45349;48.692;8.186;2023-04-01T02:11:16;97383.50;;;8.69;85.07
59531;BME280;45349;48.692;8.186;2023-04-01T02:13:52;97375.88;;;8.68;84.36
59531;BME280;45349;48.692;8.186;2023-04-01T02:16:23;97384.03;;;8.65;84.13
59531;BME280;45349;48.692;8.186;2023-04-01T02:18:55;97380.78;;;8.63;84.64
59531;BME280;45349;48.692;8.186;2023-04-01T02:21:24;97386.16;;;8.61;84.55
59531;BME280;45349;48.692;8.186;2023-04-01T02:23:55;97379.66;;;8.57;84.56
59531;BME280;45349;48.692;8.186;2023-04-01T02:26:23;97386.31;;;8.60;84.80
59531;BME280;45349;48.692;8.186;2023-04-01T02:28:52;97392.66;;;8.57;84.39
59531;BME280;45349;48.692;8.186;2023-04-01T02:31:20;97393.19;;;8.52;84.64
59531;BME280;45349;48.692;8.186;2023-04-01T02:33:48;97392.69;;;8.49;83.55
59531;BME280;45349;48.692;8.186;2023-04-01T02:36:16;97392.69;;;8.49;83.95
59531;BME280;45349;48.692;8.186;2023-04-01T02:38:44;97384.06;;;8.48;83.90
59531;BME280;45349;48.692;8.186;2023-04-01T02:41:13;97388.78;;;8.53;81.95
59531;BME280;45349;48.692;8.186;2023-04-01T02:43:39;97373.00;;;8.54;83.98
59531;BME280;45349;48.692;8.186;2023-04-01T02:46:06;97379.66;;;8.57;83.19
59531;BME280;45349;48.692;8.186;2023-04-01T02:48:33;97385.03;;;8.55;81.79
59531;BME280;45349;48.692;8.186;2023-04-01T02:50:59;97383.88;;;8.58;81.76
59531;BME280;45349;48.692;8.186;2023-04-01T02:53:26;97396.56;;;8.53;82.35
59531;BME280;45349;48.692;8.186;2023-04-01T02:55:52;97380.16;;;8.61;82.51
59531;BME280;45349;48.692;8.186;2023-04-01T02:58:20;97377.25;;;8.55;82.17
59531;BME280;45349;48.692;8.186;2023-04-01T03:00:47;97365.66;;;8.58;81.76
59531;BME280;45349;48.692;8.186;2023-04-01T03:03:13;97369.09;;;8.59;82.27
59531;BME280;45349;48.692;8.186;2023-04-01T03:05:40;97374.00;;;8.53;83.25
59531;BME280;45349;48.692;8.186;2023-04-01T03:08:07;97364.69;;;8.59;82.55
59531;BME280;45349;48.692;8.186;2023-04-01T03:10:33;97367.97;;;8.53;83.01
59531;BME280;45349;48.692;8.186;2023-04-01T03:13:00;97355.94;;;8.52;85.50
59531;BME280;45349;48.692;8.186;2023-04-01T03:15:28;97373.34;;;8.51;84.30
59531;BME280;45349;48.692;8.186;2023-04-01T03:17:55;97361.78;;;8.54;84.52
59531;BME280;45349;48.692;8.186;2023-04-01T03:20:21;97373.66;;;8.56;83.90
59531;BME280;45349;48.692;8.186;2023-04-01T03:22:49;97352.84;;;8.56;84.76
59531;BME280;45349;48.692;8.186;2023-04-01T03:25:15;97355.91;;;8.60;82.65
59531;BME280;45349;48.692;8.186;2023-04-01T03:27:42;97365.50;;;8.60;83.96
59531;BME280;45349;48.692;8.186;2023-04-01T03:32:53;97360.97;;;8.62;83.78
59531;BME280;45349;48.692;8.186;2023-04-01T03:35:20;97372.50;;;8.59;85.12
59531;BME280;45349;48.692;8.186;2023-04-01T03:37:46;97359.63;;;8.66;84.25
59531;BME280;45349;48.692;8.186;2023-04-01T03:40:13;97372.97;;;8.63;83.87
59531;BME280;45349;48.692;8.186;2023-04-01T03:42:39;97363.84;;;8.67;83.35
59531;BME280;45349;48.692;8.186;2023-04-01T03:45:06;97387.44;;;8.65;83.62
59531;BME280;45349;48.692;8.186;2023-04-01T03:47:34;97362.56;;;8.63;85.11
59531;BME280;45349;48.692;8.186;2023-04-01T03:50:02;97352.16;;;8.63;84.24
59531;BME280;45349;48.692;8.186;2023-04-01T03:52:30;97358.81;;;8.65;83.88
59531;BME280;45349;48.692;8.186;2023-04-01T03:54:57;97362.06;;;8.67;83.18
59531;BME280;45349;48.692;8.186;2023-04-01T03:57:23;97362.69;;;8.69;83.34
59531;BME280;45349;48.692;8.186;2023-04-01T03:59:51;97374.22;;;8.75;82.24
59531;BME280;45349;48.692;8.186;2023-04-01T04:02:19;97367.56;;;8.73;82.90
59531;BME280;45349;48.692;8.186;2023-04-01T04:04:46;97365.78;;;8.73;83.19
59531;BME280;45349;48.692;8.186;2023-04-01T04:07:14;97364.63;;;8.76;82.65
59531;BME280;45349;48.692;8.186;2023-04-01T04:10:13;97367.72;;;8.79;81.51
59531;BME280;45349;48.692;8.186;2023-04-01T04:12:39;97362.66;;;8.78;82.76
59531;BME280;45349;48.692;8.186;2023-04-01T04:15:08;97358.28;;;8.78;82.11
59531;BME280;45349;48.692;8.186;2023-04-01T04:17:35;97349.66;;;8.78;82.65
59531;BME280;45349;48.692;8.186;2023-04-01T04:20:02;97344.75;;;8.83;80.39
59531;BME280;45349;48.692;8.186;2023-04-01T04:22:30;97346.72;;;8.81;80.99
59531;BME280;45349;48.692;8.186;2023-04-01T04:24:57;97337.13;;;8.81;80.07
59531;BME280;45349;48.692;8.186;2023-04-01T04:27:23;97347.53;;;8.81;80.33
59531;BME280;45349;48.692;8.186;2023-04-01T04:29:58;97341.16;;;8.84;80.43
59531;BME280;45349;48.692;8.186;2023-04-01T04:32:24;97352.75;;;8.81;80.69
59531;BME280;45349;48.692;8.186;2023-04-01T04:34:51;97343.13;;;8.82;79.61
59531;BME280;45349;48.692;8.186;2023-04-01T04:37:19;97335.50;;;8.80;80.07
59531;BME280;45349;48.692;8.186;2023-04-01T04:39:46;97350.63;;;8.77;80.39
59531;BME280;45349;48.692;8.186;2023-04-01T04:42:13;97362.50;;;8.79;80.19
59531;BME280;45349;48.692;8.186;2023-04-01T04:44:40;97352.09;;;8.79;79.75
59531;BME280;45349;48.692;8.186;2023-04-01T04:47:06;97359.91;;;8.79;79.82
59531;BME280;45349;48.692;8.186;2023-04-01T04:49:33;97365.75;;;8.81;79.76
59531;BME280;45349;48.692;8.186;2023-04-01T04:52:04;97347.34;;;8.83;78.25
59531;BME280;45349;48.692;8.186;2023-04-01T04:54:31;97339.09;;;8.79;77.83
59531;BME280;45349;48.692;8.186;2023-04-01T04:57:01;97336.34;;;8.73;78.47
59531;BME280;45349;48.692;8.186;2023-04-01T04:59:32;97323.66;;;8.69;78.18
59531;BME280;45349;48.692;8.186;2023-04-01T05:02:25;97338.50;;;8.69;79.25
59531;BME280;45349;48.692;8.186;2023-04-01T05:04:51;97316.50;;;8.71;79.26
59531;BME280;45349;48.692;8.186;2023-04-01T05:07:18;97313.25;;;8.69;78.24
59531;BME280;45349;48.692;8.186;2023-04-01T05:09:45;97311.84;;;8.67;78.67
59531;BME280;45349;48.692;8.186;2023-04-01T05:12:14;97312.28;;;8.70;78.48
59531;BME280;45349;48.692;8.186;2023-04-01T05:15:01;97329.84;;;8.68;78.56
59531;BME280;45349;48.692;8.186;2023-04-01T05:17:29;97308.06;;;8.69;79.09
59531;BME280;45349;48.692;8.186;2023-04-01T05:19:56;97305.47;;;8.69;78.24
59531;BME280;45349;48.692;8.186;2023-04-01T05:22:23;97310.84;;;8.68;78.22
59531;BME280;45349;48.692;8.186;2023-04-01T05:24:50;97303.03;;;8.68;79.22
59531;BME280;45349;48.692;8.186;2023-04-01T05:27:19;97307.09;;;8.70;79.30
59531;BME280;45349;48.692;8.186;2023-04-01T05:29:46;97309.69;;;8.70;79.05
59531;BME280;45349;48.692;8.186;2023-04-01T05:32:36;97304.47;;;8.70;79.59
59531;BME280;45349;48.692;8.186;2023-04-01T05:35:03;97298.94;;;8.74;79.55
59531;BME280;45349;48.692;8.186;2023-04-01T05:37:30;97314.38;;;8.75;80.06
59531;BME280;45349;48.692;8.186;2023-04-01T05:39:57;97309.97;;;8.76;81.89
59531;BME280;45349;48.692;8.186;2023-04-01T05:42:26;97324.84;;;8.67;82.70
59531;BME280;45349;48.692;8.186;2023-04-01T05:44:53;97309.63;;;8.55;85.71
59531;BME280;45349;48.692;8.186;2023-04-01T05:47:39;97317.59;;;8.46;88.07
59531;BME280;45349;48.692;8.186;2023-04-01T05:50:06;97313.41;;;8.36;90.74
59531;BME280;45349;48.692;8.186;2023-04-01T05:52:33;97308.41;;;8.26;89.27
59531;BME280;45349;48.692;8.186;2023-04-01T05:54:59;97308.59;;;8.25;90.99
59531;BME280;45349;48.692;8.186;2023-04-01T05:57:28;97317.69;;;8.21;92.37
59531;BME280;45349;48.692;8.186;2023-04-01T05:59:55;97304.22;;;8.17;93.31
59531;BME280;45349;48.692;8.186;2023-04-01T06:02:22;97310.06;;;8.19;92.41
59531;BME280;45349;48.692;8.186;2023-04-01T06:04:49;97305.53;;;8.13;94.18
59531;BME280;45349;48.692;8.186;2023-04-01T06:07:16;97298.38;;;8.15;92.81
59531;BME280;45349;48.692;8.186;2023-04-01T06:09:44;97299.34;;;8.14;92.37
59531;BME280;45349;48.692;8.186;2023-04-01T06:12:25;97300.00;;;8.16;93.24
59531;BME280;45349;48.692;8.186;2023-04-01T06:15:08;97311.34;;;8.23;92.01
59531;BME280;45349;48.692;8.186;2023-04-01T06:17:47;97323.88;;;8.20;93.05
59531;BME280;45349;48.692;8.186;2023-04-01T06:20:23;97300.78;;;8.25;91.25
59531;BME280;45349;48.692;8.186;2023-04-01T06:23:04;97303.06;;;8.28;91.77
59531;BME280;45349;48.692;8.186;2023-04-01T06:25:52;97317.16;;;8.34;92.55
59531;BME280;45349;48.692;8.186;2023-04-01T06:31:50;97334.72;;;8.32;93.65
59531;BME280;45349;48.692;8.186;2023-04-01T06:34:39;97314.84;;;8.39;91.60
59531;BME280;45349;48.692;8.186;2023-04-01T06:37:34;97318.13;;;8.33;94.25
59531;BME280;45349;48.692;8.186;2023-04-01T06:40:12;97336.66;;;8.30;94.47
59531;BME280;45349;48.692;8.186;2023-04-01T06:42:54;97338.47;;;8.29;93.76
59531;BME280;45349;48.692;8.186;2023-04-01T06:45:56;97319.94;;;8.32;95.55
59531;BME280;45349;48.692;8.186;2023-04-01T06:49:11;97322.00;;;8.37;94.00
59531;BME280;45349;48.692;8.186;2023-04-01T06:51:54;97323.28;;;8.41;95.38
59531;BME280;45349;48.692;8.186;2023-04-01T06:55:18;97339.78;;;8.25;97.47
59531;BME280;45349;48.692;8.186;2023-04-01T06:58:11;97319.63;;;8.27;97.41
59531;BME280;45349;48.692;8.186;2023-04-01T07:00:42;97334.25;;;8.28;98.27
59531;BME280;45349;48.692;8.186;2023-04-01T07:03:18;97321.75;;;8.23;96.32
59531;BME280;45349;48.692;8.186;2023-04-01T07:05:48;97330.00;;;8.35;97.76
59531;BME280;45349;48.692;8.186;2023-04-01T07:08:19;97336.16;;;8.42;98.69
59531;BME280;45349;48.692;8.186;2023-04-01T07:10:50;97341.03;;;8.37;97.24
59531;BME280;45349;48.692;8.186;2023-04-01T07:13:42;97338.09;;;8.40;97.12
59531;BME280;45349;48.692;8.186;2023-04-01T07:16:18;97341.50;;;8.41;98.79
59531;BME280;45349;48.692;8.186;2023-04-01T07:18:50;97355.84;;;8.28;98.57
59531;BME280;45349;48.692;8.186;2023-04-01T07:21:29;97345.13;;;8.23;100.00
59531;BME280;45349;48.692;8.186;2023-04-01T07:24:05;97349.03;;;8.27;98.54
59531;BME280;45349;48.692;8.186;2023-04-01T07:26:42;97339.28;;;8.21;99.48
59531;BME280;45349;48.692;8.186;2023-04-01T07:29:15;97363.28;;;8.40;100.00
59531;BME280;45349;48.692;8.186;2023-04-01T07:32:20;97370.59;;;8.45;99.23
59531;BME280;45349;48.692;8.186;2023-04-01T07:35:04;97351.56;;;8.52;98.04
59531;BME280;45349;48.692;8.186;2023-04-01T07:37:40;97365.91;;;8.32;99.49
59531;BME280;45349;48.692;8.186;2023-04-01T07:40:20;97361.69;;;8.31;100.00
59531;BME280;45349;48.692;8.186;2023-04-01T07:43:01;97386.56;;;8.25;100.00
59531;BME280;45349;48.692;8.186;2023-04-01T07:45:37;97386.56;;;8.33;100.00
59531;BME280;45349;48.692;8.186;2023-04-01T07:48:19;97378.75;;;8.33;100.00
59531;BME280;45349;48.692;8.186;2023-04-01T07:50:54;97390.16;;;8.24;100.00
59531;BME280;45349;48.692;8.186;2023-04-01T07:53:29;97387.22;;;8.27;100.00
59531;BME280;45349;48.692;8.186;2023-04-01T07:56:05;97402.81;;;8.35;100.00
59531;BME280;45349;48.692;8.186;2023-04-01T07:58:43;97399.56;;;8.33;100.00
59531;BME280;45349;48.692;8.186;2023-04-01T08:01:39;97415.66;;;8.20;100.00
59531;BME280;45349;48.692;8.186;2023-04-01T08:04:21;97399.56;;;8.33;100.00
59531;BME280;45349;48.692;8.186;2023-04-01T08:06:54;97400.03;;;8.37;100.00
59531;BME280;45349;48.692;8.186;2023-04-01T08:09:30;97404.72;;;8.41;100.00
59531;BME280;45349;48.692;8.186;2023-04-01T08:12:44;97394.94;;;8.52;100.00
59531;BME280;45349;48.692;8.186;2023-04-01T08:15:55;97405.69;;;8.49;100.00
59531;BME280;45349;48.692;8.186;2023-04-01T08:18:43;97399.78;;;8.63;99.44
59531;BME280;45349;48.692;8.186;2023-04-01T08:21:14;97408.56;;;8.62;100.00
59531;BME280;45349;48.692;8.186;2023-04-01T08:23:44;97428.13;;;8.41;100.00
59531;BME280;45349;48.692;8.186;2023-04-01T08:26:19;97419.50;;;8.57;100.00
59531;BME280;45349;48.692;8.186;2023-04-01T08:28:54;97412.03;;;8.46;100.00
59531;BME280;45349;48.692;8.186;2023-04-01T08:31:30;97417.06;;;8.48;100.00
59531;BME280;45349;48.692;8.186;2023-04-01T08:34:00;97417.41;;;8.45;100.00
59531;BME280;45349;48.692;8.186;2023-04-01T08:36:32;97417.72;;;8.50;100.00
59531;BME280;45349;48.692;8.186;2023-04-01T08:39:16;97432.00;;;8.54;100.00
59531;BME280;45349;48.692;8.186;2023-04-01T08:45:10;97434.53;;;8.79;100.00
59531;BME280;45349;48.692;8.186;2023-04-01T08:47:54;97435.19;;;8.73;100.00
59531;BME280;45349;48.692;8.186;2023-04-01T08:50:51;97423.66;;;8.75;100.00
59531;BME280;45349;48.692;8.186;2023-04-01T08:53:40;97432.34;;;8.51;100.00
59531;BME280;45349;48.692;8.186;2023-04-01T08:56:15;97424.50;;;8.59;100.00
59531;BME280;45349;48.692;8.186;2023-04-01T08:59:14;97449.75;;;8.50;100.00
59531;BME280;45349;48.692;8.186;2023-04-01T09:01:50;97444.84;;;8.47;100.00
59531;BME280;45349;48.692;8.186;2023-04-01T09:04:50;97455.94;;;8.49;100.00
59531;BME280;45349;48.692;8.186;2023-04-01T09:07:36;97442.94;;;8.49;100.00
59531;BME280;45349;48.692;8.186;2023-04-01T09:10:33;97422.56;;;8.61;100.00
59531;BME280;45349;48.692;8.186;2023-04-01T09:13:31;97418.84;;;8.47;100.00
59531;BME280;45349;48.692;8.186;2023-04-01T09:16:15;97452.84;;;8.46;100.00
59531;BME280;45349;48.692;8.186;2023-04-01T09:19:14;97455.94;;;8.49;100.00
59531;BME280;45349;48.692;8.186;2023-04-01T09:21:52;97447.16;;;8.50;100.00
59531;BME280;45349;48.692;8.186;2023-04-01T09:24:40;97450.53;;;8.51;100.00
59531;BME280;45349;48.692;8.186;2023-04-01T09:27:14;97443.56;;;8.60;100.00
59531;BME280;45349;48.692;8.186;2023-04-01T09:33:01;97466.78;;;8.61;100.00
59531;BME280;45349;48.692;8.186;2023-04-01T09:35:39;97467.91;;;8.75;100.00
59531;BME280;45349;48.692;8.186;2023-04-01T09:38:21;97460.13;;;8.67;100.00
59531;BME280;45349;48.692;8.186;2023-04-01T09:40:54;97464.03;;;8.63;100.00
59531;BME280;45349;48.692;8.186;2023-04-01T09:43:58;97458.31;;;8.67;100.00
59531;BME280;45349;48.692;8.186;2023-04-01T09:46:37;97463.34;;;8.69;100.00
59531;BME280;45349;48.692;8.186;2023-04-01T09:49:30;97468.09;;;8.49;100.00
59531;BME280;45349;48.692;8.186;2023-04-01T09:52:12;97478.63;;;8.72;100.00
59531;BME280;45349;48.692;8.186;2023-04-01T09:54:53;97463.53;;;8.59;100.00
59531;BME280;45349;48.692;8.186;2023-04-01T09:57:45;97454.06;;;8.75;100.00
59531;BME280;45349;48.692;8.186;2023-04-01T10:00:55;97463.78;;;8.81;100.00
59531;BME280;45349;48.692;8.186;2023-04-01T10:04:06;97480.94;;;9.07;100.00
59531;BME280;45349;48.692;8.186;2023-04-01T10:13:13;97467.22;;;9.21;100.00
59531;BME280;45349;48.692;8.186;2023-04-01T10:19:10;97482.03;;;9.12;100.00
59531;BME280;45349;48.692;8.186;2023-04-01T10:22:02;97467.25;;;9.13;100.00
59531;BME280;45349;48.692;8.186;2023-04-01T10:27:59;97476.59;;;8.99;100.00
59531;BME280;45349;48.692;8.186;2023-04-01T10:31:23;97474.81;;;9.31;100.00
59531;BME280;45349;48.692;8.186;2023-04-01T10:34:09;97470.59;;;9.22;99.48
59531;BME280;45349;48.692;8.186;2023-04-01T10:36:47;97487.78;;;9.39;100.00
59531;BME280;45349;48.692;8.186;2023-04-01T10:43:13;97468.50;;;9.25;99.66
59531;BME280;45349;48.692;8.186;2023-04-01T10:52:34;97501.44;;;9.10;100.00
59531;BME280;45349;48.692;8.186;2023-04-01T10:59:17;97497.31;;;9.15;100.00
59531;BME280;45349;48.692;8.186;2023-04-01T11:02:25;97495.31;;;9.26;100.00
59531;BME280;45349;48.692;8.186;2023-04-01T11:05:52;97491.97;;;9.17;100.00
59531;BME280;45349;48.692;8.186;2023-04-01T11:11:58;97486.28;;;9.13;100.00
59531;BME280;45349;48.692;8.186;2023-04-01T11:15:13;97495.38;;;9.18;100.00
59531;BME280;45349;48.692;8.186;2023-04-01T11:24:11;97500.94;;;8.58;100.00
59531;BME280;45349;48.692;8.186;2023-04-01T11:27:10;97504.50;;;8.57;100.00
59531;BME280;45349;48.692;8.186;2023-04-01T11:30:18;97506.28;;;8.65;100.00
59531;BME280;45349;48.692;8.186;2023-04-01T11:32:54;97492.28;;;8.74;100.00
59531;BME280;45349;48.692;8.186;2023-04-01T11:35:35;97499.25;;;8.74;100.00
59531;BME280;45349;48.692;8.186;2023-04-01T11:38:20;97497.97;;;8.78;100.00
59531;BME280;45349;48.692;8.186;2023-04-01T11:41:00;97512.72;;;8.94;100.00
59531;BME280;45349;48.692;8.186;2023-04-01T11:43:38;97507.44;;;9.10;100.00
59531;BME280;45349;48.692;8.186;2023-04-01T11:46:28;97504.75;;;8.87;100.00
59531;BME280;45349;48.692;8.186;2023-04-01T11:49:05;97526.56;;;8.86;100.00
59531;BME280;45349;48.692;8.186;2023-04-01T11:51:56;97514.78;;;9.07;100.00
59531;BME280;45349;48.692;8.186;2023-04-01T11:54:38;97511.22;;;8.99;100.00
59531;BME280;45349;48.692;8.186;2023-04-01T11:57:31;97504.06;;;9.01;100.00
59531;BME280;45349;48.692;8.186;2023-04-01T12:00:13;97514.88;;;8.74;100.00
59531;BME280;45349;48.692;8.186;2023-04-01T12:02:58;97510.97;;;8.78;100.00
59531;BME280;45349;48.692;8.186;2023-04-01T12:05:38;97517.78;;;8.79;100.00
59531;BME280;45349;48.692;8.186;2023-04-01T12:08:15;97519.75;;;8.77;100.00
59531;BME280;45349;48.692;8.186;2023-04-01T12:10:53;97508.84;;;8.81;100.00
59531;BME280;45349;48.692;8.186;2023-04-01T12:13:32;97515.84;;;8.73;100.00
59531;BME280;45349;48.692;8.186;2023-04-01T12:16:11;97514.84;;;8.90;100.00
59531;BME280;45349;48.692;8.186;2023-04-01T12:18:48;97527.19;;;8.88;100.00
59531;BME280;45349;48.692;8.186;2023-04-01T12:21:23;97518.13;;;8.76;100.00
59531;BME280;45349;48.692;8.186;2023-04-01T12:24:03;97526.91;;;8.75;100.00
59531;BME280;45349;48.692;8.186;2023-04-01T12:29:41;97524.56;;;8.96;100.00
59531;BME280;45349;48.692;8.186;2023-04-01T12:32:17;97530.09;;;9.01;100.00
59531;BME280;45349;48.692;8.186;2023-04-01T12:35:00;97535.44;;;9.08;100.00
59531;BME280;45349;48.692;8.186;2023-04-01T12:37:36;97531.19;;;9.07;100.00
59531;BME280;45349;48.692;8.186;2023-04-01T12:40:20;97534.66;;;8.99;100.00
59531;BME280;45349;48.692;8.186;2023-04-01T12:42:59;97548.41;;;9.16;100.00
59531;BME280;45349;48.692;8.186;2023-04-01T12:45:31;97547.53;;;8.93;100.00
59531;BME280;45349;48.692;8.186;2023-04-01T12:48:15;97549.00;;;8.79;100.00
59531;BME280;45349;48.692;8.186;2023-04-01T12:51:14;97548.88;;;8.80;100.00
59531;BME280;45349;48.692;8.186;2023-04-01T12:54:08;97567.41;;;8.77;100.00
59531;BME280;45349;48.692;8.186;2023-04-01T12:56:44;97555.69;;;8.90;100.00
59531;BME280;45349;48.692;8.186;2023-04-01T12:59:28;97562.50;;;8.99;100.00
59531;BME280;45349;48.692;8.186;2023-04-01T13:02:01;97548.66;;;8.90;100.00
59531;BME280;45349;48.692;8.186;2023-04-01T13:04:43;97554.47;;;9.09;100.00
59531;BME280;45349;48.692;8.186;2023-04-01T13:07:42;97556.97;;;8.94;100.00
59531;BME280;45349;48.692;8.186;2023-04-01T13:10:20;97569.19;;;8.77;100.00
59531;BME280;45349;48.692;8.186;2023-04-01T13:13:02;97560.91;;;8.81;100.00
59531;BME280;45349;48.692;8.186;2023-04-01T13:15:37;97558.00;;;8.68;100.00
59531;BME280;45349;48.692;8.186;2023-04-01T13:18:18;97568.06;;;8.63;100.00
59531;BME280;45349;48.692;8.186;2023-04-01T13:21:16;97543.69;;;8.72;100.00
59531;BME280;45349;48.692;8.186;2023-04-01T13:23:55;97553.09;;;8.81;100.00
59531;BME280;45349;48.692;8.186;2023-04-01T13:26:28;97548.84;;;8.89;100.00
59531;BME280;45349;48.692;8.186;2023-04-01T13:29:01;97557.56;;;9.04;100.00
59531;BME280;45349;48.692;8.186;2023-04-01T13:31:40;97560.97;;;9.13;100.00
59531;BME280;45349;48.692;8.186;2023-04-01T13:34:30;97559.03;;;9.07;100.00
59531;BME280;45349;48.692;8.186;2023-04-01T13:37:09;97557.03;;;9.25;100.00
59531;BME280;45349;48.692;8.186;2023-04-01T13:39:56;97559.97;;;9.22;100.00
59531;BME280;45349;48.692;8.186;2023-04-01T13:42:31;97565.72;;;9.49;100.00
59531;BME280;45349;48.692;8.186;2023-04-01T13:45:09;97557.34;;;9.30;100.00
59531;BME280;45349;48.692;8.186;2023-04-01T13:48:14;97545.63;;;9.26;100.00
59531;BME280;45349;48.692;8.186;2023-04-01T13:51:00;97554.53;;;9.32;100.00
59531;BME280;45349;48.692;8.186;2023-04-01T13:53:56;97551.84;;;9.17;100.00
59531;BME280;45349;48.692;8.186;2023-04-01T13:56:44;97557.41;;;9.06;100.00
59531;BME280;45349;48.692;8.186;2023-04-01T13:59:33;97574.91;;;9.28;100.00
59531;BME280;45349;48.692;8.186;2023-04-01T14:02:19;97563.22;;;9.24;100.00
59531;BME280;45349;48.692;8.186;2023-04-01T14:05:08;97556.19;;;9.25;100.00
59531;BME280;45349;48.692;8.186;2023-04-01T14:07:46;97563.78;;;9.43;100.00
59531;BME280;45349;48.692;8.186;2023-04-01T14:10:23;97559.72;;;9.40;100.00
59531;BME280;45349;48.692;8.186;2023-04-01T14:12:58;97557.34;;;9.30;100.00
59531;BME280;45349;48.692;8.186;2023-04-01T14:15:53;97553.78;;;9.23;100.00
59531;BME280;45349;48.692;8.186;2023-04-01T14:18:33;97562.06;;;9.27;100.00
59531;BME280;45349;48.692;8.186;2023-04-01T14:21:21;97576.09;;;9.09;100.00
59531;BME280;45349;48.692;8.186;2023-04-01T14:27:05;97568.50;;;8.91;100.00
59531;BME280;45349;48.692;8.186;2023-04-01T14:29:42;97585.75;;;8.84;100.00
59531;BME280;45349;48.692;8.186;2023-04-01T14:32:21;97579.53;;;9.01;100.00
59531;BME280;45349;48.692;8.186;2023-04-01T14:35:03;97586.38;;;9.11;100.00
59531;BME280;45349;48.692;8.186;2023-04-01T14:38:05;97584.41;;;9.13;99.83
59531;BME280;45349;48.692;8.186;2023-04-01T14:40:50;97593.84;;;9.14;100.00
59531;BME280;45349;48.692;8.186;2023-04-01T14:46:34;97590.91;;;9.09;100.00
59531;BME280;45349;48.692;8.186;2023-04-01T14:49:04;97579.22;;;8.96;100.00
59531;BME280;45349;48.692;8.186;2023-04-01T14:51:40;97586.06;;;8.89;100.00
59531;BME280;45349;48.692;8.186;2023-04-01T14:54:13;97585.94;;;8.91;100.00
59531;BME280;45349;48.692;8.186;2023-04-01T14:56:49;97597.31;;;8.81;100.00
59531;BME280;45349;48.692;8.186;2023-04-01T14:59:26;97597.97;;;8.83;100.00